Portada
METAR-TAF:

METAR-TAF

Aeroports :

Townsville, Austràlia

latitud: 19-15S, longitud: 146-45E, altitud: 6 m

Observació

L'informe es va fer fa 43 minuts, a les 00:00 UTC
Vent 8 kt del Sud-Est
Temperatura 28°C
Humitat 62%
Pressió 1013 hPa
Visibilitat 10 km o més
Escasses núvols a una alçada de 2500 ft

METAR: YBTL 020000Z 13008KT 9999 FEW025 28/20 Q1013

Hora: 10:43 (00:43 UTC)

Pronòstic

L'informe es va fer fa 1 hora i 35 minuts, a les 23:08 UTC
Pronòstic vàlid del 02 a les 00 UTC al 03 a les 00 UTC
Vent 12 kt del Est/Sud-Est
Visibilitat 10 km o més
Núvols disperses a una alçada de 2500 ft
A partir de les 02 a les 0200 UTC
Vent 14 kt del Est/Nord-Est
Visibilitat 10 km o més
Escasses núvols a una alçada de 3500 ft
A partir de les 02 a les 0900 UTC
Vent 8 kt del Est/Sud-Est
Visibilitat 10 km o més
Escasses núvols a una alçada de 2500 ft

TAF: YBTL 012308Z 0200/0300 11012KT 9999 SCT025 FM020200 06014KT 9999 FEW035 FM020900 12008KT 9999 FEW025

Observacions i pronòstics meteorològics de més de 4000 aeroports (METAR i TAF).

Les estacions disponibles són els punts grocs i vermells al mapa.

Posi el ratolí al punt desitjat per veure el nom de l'estació.

Feu clic per veure les observacions i els pronòstics meteorològics.

Per canviar el mapa: feu clic els botons verds amb una creu de color negre per apropar; al botó verd amb un guió per allunyar la imatge; o en les fletxes verdes per a mapes adjacents.


METAR-TAF: